Terminal Aerodrome Forecast
Issued by NWS

Home | Current Version | Previous Version | Text Only | Print | Product List | Glossary On
Versions: 1 2 3 4 5 6 7 8 9 10 11 12 13 14 15 16 17 18 19 20 21 22 23 24 25 26
000
FTUS43 KDLH 080025 AAA
TAFHIB
TAF AMD
KHIB 080025Z 0800/0824 26007KT 1 1/2SM -SN BR OVC022
     FM080200 31011G20KT 3SM -SN OVC020
      TEMPO 0802/0803 3/4SM -SHSN BKN001 OVC014
     FM081000 33012KT 4SM -SN OVC020
     FM081800 33011G17KT P6SM VCSH OVC015
     FM082200 32010KT P6SM OVC015=

USA.gov is the U.S. government's official web portal to all federal, state and local government web resources and services.